createdAt,value
2019-02-11T00:05:24.651Z,6.01
2019-02-11T00:11:19.664Z,6.79
2019-02-11T00:17:14.655Z,6.38
2019-02-11T00:23:09.705Z,6.16
2019-02-11T00:29:04.655Z,6.64
2019-02-11T00:34:59.654Z,6.65
2019-02-11T00:40:54.688Z,6.08
2019-02-11T00:46:49.650Z,6.26
2019-02-11T00:52:44.672Z,6.03
2019-02-11T00:58:39.694Z,6
2019-02-11T01:04:34.741Z,5.77
2019-02-11T01:10:29.691Z,6.85
2019-02-11T01:16:24.712Z,6.5
2019-02-11T01:22:19.730Z,6.57
2019-02-11T01:28:14.744Z,6.5
2019-02-11T01:34:09.731Z,6.15
2019-02-11T01:40:04.735Z,5.64
2019-02-11T01:45:59.720Z,6.76
2019-02-11T01:51:54.749Z,5.45
2019-02-11T01:57:49.729Z,6.31
2019-02-11T02:03:44.830Z,7.1
2019-02-11T02:09:39.776Z,5.62
2019-02-11T02:15:34.752Z,5.23
2019-02-11T02:21:29.761Z,6.44
2019-02-11T02:27:24.772Z,5.28
2019-02-11T02:33:19.759Z,6.22
2019-02-11T02:39:14.761Z,5.27
2019-02-11T02:45:09.810Z,5.78
2019-02-11T02:51:04.815Z,5.77
2019-02-11T02:56:59.789Z,7.08
2019-02-11T03:02:54.812Z,5.12
2019-02-11T03:08:49.784Z,5.1
2019-02-11T03:14:44.858Z,5.35
2019-02-11T03:20:39.809Z,5.47
2019-02-11T03:26:34.818Z,5.76
2019-02-11T03:32:29.825Z,5.75
2019-02-11T03:38:24.832Z,5.74
2019-02-11T03:44:19.849Z,6.74
2019-02-11T03:50:14.821Z,5.37
2019-02-11T03:56:09.848Z,5.36
2019-02-11T04:02:04.887Z,5.53
2019-02-11T04:07:59.864Z,6.3
2019-02-11T04:13:54.879Z,5.83
2019-02-11T04:19:49.861Z,6.53
2019-02-11T04:25:44.848Z,5.49
2019-02-11T04:31:39.856Z,5.41
2019-02-11T04:37:34.857Z,5.73
2019-02-11T04:43:29.899Z,5.74
2019-02-11T04:49:24.945Z,4.72
2019-02-11T04:55:19.882Z,4.73
2019-02-11T05:01:14.910Z,4.96
2019-02-11T05:07:09.931Z,4.8
2019-02-11T05:13:04.904Z,5
2019-02-11T05:18:59.929Z,4.92
2019-02-11T05:24:54.973Z,4.39
2019-02-11T09:51:10.414Z,4.24
2019-02-11T09:51:10.434Z,7.8
2019-02-11T09:51:10.434Z,7.8
2019-02-11T09:51:10.434Z,7.8
2019-02-11T09:51:10.448Z,7.8
2019-02-11T09:51:10.461Z,7.8
2019-02-11T09:51:10.474Z,7.8
2019-02-11T09:51:10.492Z,7.8
2019-02-11T09:51:10.498Z,7.8
2019-02-11T09:51:10.518Z,7.8
2019-02-11T09:51:10.527Z,7.8
2019-02-11T09:51:10.560Z,7.8
2019-02-11T09:51:10.573Z,7.8
2019-02-11T09:51:10.618Z,7.8
2019-02-11T09:51:10.625Z,7.8
2019-02-11T09:51:10.668Z,7.8
2019-02-11T09:51:10.681Z,7.8
2019-02-11T09:51:10.705Z,7.8
2019-02-11T09:51:10.707Z,7.8
2019-02-11T09:51:10.754Z,7.8
2019-02-11T09:51:10.814Z,7.8
2019-02-11T09:51:10.839Z,7.8
2019-02-11T09:51:10.850Z,7.8
2019-02-11T09:51:10.867Z,7.8
2019-02-11T09:51:10.896Z,7.8
2019-02-11T09:51:10.921Z,7.8
2019-02-11T09:51:10.966Z,7.8
2019-02-11T09:51:10.980Z,7.8
2019-02-11T09:51:10.986Z,7.8
2019-02-11T09:51:11.033Z,7.8
2019-02-11T09:51:11.038Z,7.8
2019-02-11T09:51:11.079Z,7.8
2019-02-11T09:51:11.088Z,7.8
2019-02-11T09:51:11.115Z,7.8
2019-02-11T09:51:11.141Z,7.8
2019-02-11T09:51:11.162Z,7.8
2019-02-11T09:51:11.175Z,7.8
2019-02-11T09:51:11.246Z,7.8
2019-02-11T09:51:11.249Z,7.8
2019-02-11T09:51:11.275Z,7.8
2019-02-11T09:51:11.318Z,7.8
2019-02-11T09:51:11.325Z,7.8
2019-02-11T09:51:11.358Z,7.8
2019-02-11T09:51:11.384Z,7.8
2019-02-11T09:51:11.394Z,7.8
2019-02-11T09:57:05.153Z,10.42
2019-02-11T10:03:00.119Z,9.88
2019-02-11T10:08:55.141Z,9.65
2019-02-11T10:14:50.170Z,11.06
2019-02-11T10:20:45.178Z,10.75
2019-02-11T10:26:40.174Z,12.02
2019-02-11T10:32:35.221Z,10.6
2019-02-11T10:38:36.204Z,8.61
2019-02-11T10:44:25.191Z,9.03
2019-02-11T10:50:20.260Z,9.73
2019-02-11T10:56:15.258Z,8.34
2019-02-11T11:02:10.227Z,6.31
2019-02-11T11:08:05.209Z,8.83
2019-02-11T11:14:00.189Z,6.28
2019-02-11T11:19:55.208Z,1.83
2019-02-11T11:25:50.208Z,2.81
2019-02-11T11:31:45.238Z,3.6
2019-02-11T11:37:40.224Z,2.36
2019-02-11T11:43:35.220Z,1.61
2019-02-11T11:49:30.246Z,2.72
2019-02-11T11:55:25.325Z,2.45
2019-02-11T12:01:20.392Z,0.95
2019-02-11T12:07:15.309Z,1.13
2019-02-11T12:13:22.201Z,1
2019-02-11T12:19:05.256Z,0.89
2019-02-11T12:25:00.365Z,1.03
2019-02-11T12:30:55.274Z,1.2
2019-02-11T12:36:50.302Z,1.03
2019-02-11T12:42:45.287Z,1.71
2019-02-11T12:48:40.298Z,1.18
2019-02-11T12:54:35.317Z,1.14
2019-02-11T13:00:30.354Z,1.08
2019-02-11T13:06:25.879Z,1.06
2019-02-11T13:12:20.346Z,0.84
2019-02-11T13:18:15.579Z,0.93
2019-02-11T13:24:10.372Z,0.87
2019-02-11T13:30:05.354Z,1.03
2019-02-11T13:36:00.321Z,0.95
2019-02-11T13:41:55.342Z,0.88
2019-02-11T13:47:54.374Z,1.24
2019-02-11T13:53:45.339Z,1.01
2019-02-11T13:59:40.378Z,1.7
2019-02-11T14:05:35.341Z,1.44
2019-02-11T14:11:30.397Z,0.85
2019-02-11T14:17:25.380Z,1.2
2019-02-11T14:23:20.405Z,2.23
2019-02-11T14:29:15.413Z,1.24
2019-02-11T14:35:10.377Z,1.24
2019-02-11T14:41:05.386Z,1.13
2019-02-11T14:47:00.410Z,0.9
2019-02-11T14:52:55.419Z,1.22
2019-02-11T14:58:50.440Z,0.95
2019-02-11T15:04:45.396Z,1.35
2019-02-11T15:10:40.453Z,1.23
2019-02-11T15:16:35.428Z,1.46
2019-02-11T15:22:30.432Z,1.3
2019-02-11T15:28:25.416Z,1.28
2019-02-11T15:34:20.443Z,1.57
2019-02-11T15:40:15.477Z,3
2019-02-11T15:46:10.434Z,18.83
2019-02-11T15:52:05.454Z,4.72
2019-02-11T15:58:00.500Z,2.03
2019-02-11T16:03:55.481Z,2.39
2019-02-11T16:09:50.502Z,1.93
2019-02-11T16:15:45.542Z,1.72
2019-02-11T16:21:40.486Z,2.16
2019-02-11T16:27:35.489Z,3.05
2019-02-11T16:33:30.506Z,4
2019-02-11T16:39:25.502Z,5.27
2019-02-11T16:45:20.535Z,3.91
2019-02-11T16:51:15.483Z,3.34
2019-02-11T16:57:10.527Z,4.88
2019-02-11T17:03:05.508Z,4.66
2019-02-11T17:09:00.527Z,6.98
2019-02-11T17:14:55.543Z,2.68
2019-02-11T17:20:50.550Z,3.3
2019-02-11T17:26:45.585Z,2.73
2019-02-11T17:32:40.549Z,2.88
2019-02-11T17:38:35.575Z,4.46
2019-02-11T17:44:30.554Z,2.18
2019-02-11T17:50:25.556Z,3.72
2019-02-11T17:56:20.553Z,2.3
2019-02-11T18:02:15.599Z,2.38
2019-02-11T18:08:10.579Z,3.62
2019-02-11T18:14:05.622Z,2.64
2019-02-11T18:20:00.629Z,6.88
2019-02-11T18:25:55.581Z,3.58
2019-02-11T18:31:50.648Z,3.67
2019-02-11T18:37:45.590Z,3.23
2019-02-11T18:43:40.647Z,3.33
2019-02-11T18:49:35.598Z,3.39
2019-02-11T18:55:30.648Z,5.41
2019-02-11T19:01:25.619Z,5.04
2019-02-11T19:07:20.639Z,3.42
2019-02-11T19:13:15.621Z,3.26
2019-02-11T19:19:10.614Z,3.02
2019-02-11T19:25:05.656Z,3.18
2019-02-11T19:31:00.636Z,2.55
2019-02-11T19:36:55.638Z,3.16
2019-02-11T19:42:50.654Z,2.9
2019-02-11T19:48:45.658Z,2.95
2019-02-11T19:54:40.649Z,2.63
2019-02-11T20:00:35.689Z,1.82
2019-02-11T20:06:30.718Z,2.71
2019-02-11T20:12:25.688Z,3.49
2019-02-11T20:18:20.720Z,3.21
2019-02-11T20:24:15.699Z,3.25
2019-02-11T20:30:10.728Z,2.18
2019-02-11T20:36:05.698Z,1.83
2019-02-11T20:42:00.722Z,2.77
2019-02-11T20:47:55.694Z,2.41
2019-02-11T20:53:50.711Z,2.47
2019-02-11T20:59:45.707Z,2.25
2019-02-11T21:05:40.721Z,3.71
2019-02-11T21:11:35.780Z,2.06
2019-02-11T21:17:30.739Z,2.86
2019-02-11T21:23:25.786Z,2.42
2019-02-11T21:29:20.735Z,4.87
2019-02-11T21:35:15.747Z,4.4
2019-02-11T21:41:10.752Z,6.04
2019-02-11T21:47:05.763Z,5.41
2019-02-11T21:53:00.771Z,6.11
2019-02-11T21:58:55.778Z,2.39
2019-02-11T22:04:50.814Z,2.27
2019-02-11T22:10:45.784Z,2.4
2019-02-11T22:16:40.810Z,3.57
2019-02-11T22:22:35.773Z,2.06
2019-02-11T22:28:30.790Z,1.33
2019-02-11T22:34:25.783Z,1.84
2019-02-11T22:40:20.808Z,4.36
2019-02-11T22:46:15.818Z,5.52
2019-02-11T22:52:10.816Z,5.11
2019-02-11T22:58:05.816Z,6.1
2019-02-11T23:04:00.817Z,5.96
2019-02-11T23:09:55.864Z,3.28
2019-02-11T23:15:50.819Z,2.47
2019-02-11T23:21:45.832Z,2.79
2019-02-11T23:27:40.858Z,2.11
2019-02-11T23:33:35.856Z,1.85
2019-02-11T23:39:30.858Z,3.18
2019-02-11T23:45:25.856Z,3.39
2019-02-11T23:51:20.888Z,1.87
2019-02-11T23:57:15.869Z,2.27
